createdAt,value
2023-05-20T00:01:31.848Z,94836.84
2023-05-20T00:04:01.438Z,94836.38
2023-05-20T00:06:29.627Z,94835.47
2023-05-20T00:08:59.832Z,94827.44
2023-05-20T00:11:27.954Z,94836.38
2023-05-20T00:13:55.930Z,94817.94
2023-05-20T00:16:23.951Z,94821.72
2023-05-20T00:18:51.944Z,94842.75
2023-05-20T00:21:21.324Z,94813.06
2023-05-20T00:23:49.282Z,94828.97
2023-05-20T00:26:17.616Z,94826.28
2023-05-20T00:28:45.672Z,94820.28
2023-05-20T00:31:13.812Z,94830.78
2023-05-20T00:33:42.098Z,94818.56
2023-05-20T00:36:10.246Z,94820.78
2023-05-20T00:38:39.589Z,94806.41
2023-05-20T00:41:07.598Z,94797.09
2023-05-20T00:43:35.521Z,94814.06
2023-05-20T00:46:03.688Z,94796.38
2023-05-20T00:48:40.920Z,94807.34
2023-05-20T00:51:09.149Z,94809.63
2023-05-20T00:53:37.958Z,94790.47
2023-05-20T00:56:09.366Z,94807.69
2023-05-20T00:58:38.376Z,94804.19
2023-05-20T01:01:06.687Z,94802.78
2023-05-20T01:03:35.419Z,94799.78
2023-05-20T01:06:03.792Z,94811.88
2023-05-20T01:08:32.400Z,94792.91
2023-05-20T01:11:05.860Z,94792.94
2023-05-20T01:13:40.361Z,94810.03
2023-05-20T01:16:11.210Z,94812.00
2023-05-20T01:18:41.148Z,94810.72
2023-05-20T01:21:11.777Z,94798.03
2023-05-20T01:23:42.430Z,94817.13
2023-05-20T01:26:13.882Z,94809.63
2023-05-20T01:28:44.661Z,94798.38
2023-05-20T01:31:17.818Z,94813.75
2023-05-20T01:33:47.683Z,94813.28
2023-05-20T01:36:16.175Z,94808.00
2023-05-20T01:38:45.957Z,94815.16
2023-05-20T01:41:14.514Z,94789.22
2023-05-20T01:43:43.808Z,94818.47
2023-05-20T01:46:12.009Z,94818.78
2023-05-20T01:48:40.291Z,94798.25
2023-05-20T01:51:08.313Z,94810.88
2023-05-20T01:53:36.328Z,94808.88
2023-05-20T01:56:06.992Z,94801.94
2023-05-20T01:58:35.087Z,94815.78
2023-05-20T02:01:03.889Z,94797.78
2023-05-20T02:03:31.925Z,94804.53
2023-05-20T02:06:00.044Z,94791.13
2023-05-20T02:08:28.278Z,94807.31
2023-05-20T02:10:56.267Z,94793.53
2023-05-20T02:13:25.557Z,94768.63
2023-05-20T02:15:53.644Z,94787.06
2023-05-20T02:18:21.650Z,94791.31
2023-05-20T02:20:49.672Z,94770.53
2023-05-20T02:23:17.689Z,94786.91
2023-05-20T02:25:46.536Z,94789.69
2023-05-20T02:28:16.013Z,94780.84
2023-05-20T02:30:45.423Z,94781.31
2023-05-20T02:33:14.008Z,94784.16
2023-05-20T02:35:42.094Z,94787.38
2023-05-20T02:38:10.340Z,94768.00
2023-05-20T02:40:38.507Z,94793.22
2023-05-20T02:43:06.522Z,94780.47
2023-05-20T02:45:34.704Z,94788.41
2023-05-20T02:48:04.351Z,94786.66
2023-05-20T02:50:32.406Z,94779.84
2023-05-20T02:53:00.558Z,94775.81
2023-05-20T02:55:29.931Z,94763.81
2023-05-20T02:57:57.995Z,94784.84
2023-05-20T03:00:28.765Z,94785.22
2023-05-20T03:02:56.749Z,94779.84
2023-05-20T03:05:27.562Z,94788.66
2023-05-20T03:07:55.636Z,94793.38
2023-05-20T03:10:23.872Z,94769.03
2023-05-20T03:12:51.844Z,94806.94
2023-05-20T03:15:19.901Z,94812.13
2023-05-20T03:17:47.855Z,94791.72
2023-05-20T03:20:16.791Z,94784.94
2023-05-20T03:22:46.166Z,94808.13
2023-05-20T03:25:14.106Z,94807.38
2023-05-20T03:27:43.075Z,94817.47
2023-05-20T03:30:11.574Z,94803.19
2023-05-20T03:32:39.620Z,94814.50
2023-05-20T03:35:08.960Z,94812.19
2023-05-20T03:37:37.449Z,94814.28
2023-05-20T03:40:10.307Z,94811.34
2023-05-20T03:42:38.687Z,94806.13
2023-05-20T03:45:07.953Z,94820.03
2023-05-20T03:47:36.076Z,94819.41
2023-05-20T03:50:04.164Z,94830.06
2023-05-20T03:52:32.162Z,94823.41
2023-05-20T03:55:00.238Z,94825.53
2023-05-20T03:57:29.616Z,94831.22
2023-05-20T03:59:57.802Z,94838.53
2023-05-20T04:02:25.960Z,94838.84
2023-05-20T04:04:54.057Z,94839.91
2023-05-20T04:07:21.973Z,94829.56
2023-05-20T04:09:50.316Z,94838.56
2023-05-20T04:12:19.531Z,94835.34
2023-05-20T04:14:50.183Z,94832.47
2023-05-20T04:17:18.186Z,94838.88
2023-05-20T04:19:46.279Z,94827.84
2023-05-20T04:22:14.332Z,94845.75
2023-05-20T04:24:42.447Z,94828.03
2023-05-20T04:27:11.214Z,94840.28
2023-05-20T04:29:41.621Z,94835.03
2023-05-20T04:32:11.659Z,94812.59
2023-05-20T04:34:39.657Z,94845.34
2023-05-20T04:37:07.992Z,94855.88
2023-05-20T04:39:36.398Z,94829.06
2023-05-20T04:42:04.909Z,94815.94
2023-05-20T04:44:33.112Z,94850.28
2023-05-20T04:47:01.201Z,94865.69
2023-05-20T04:49:30.629Z,94859.13
2023-05-20T04:51:58.719Z,94862.38
2023-05-20T04:54:26.857Z,94846.56
2023-05-20T04:56:54.907Z,94863.03
2023-05-20T04:59:22.941Z,94854.69
2023-05-20T05:01:51.146Z,94848.75
2023-05-20T05:04:19.556Z,94840.81
2023-05-20T05:06:50.546Z,94843.38
2023-05-20T05:09:18.656Z,94854.41
2023-05-20T05:11:46.722Z,94864.78
2023-05-20T05:14:14.811Z,94864.13
2023-05-20T05:16:42.839Z,94849.81
2023-05-20T05:19:14.731Z,94834.16
2023-05-20T05:21:43.546Z,94834.84
2023-05-20T05:24:13.050Z,94823.78
2023-05-20T05:26:41.471Z,94857.63
2023-05-20T05:29:11.606Z,94807.31
2023-05-20T05:31:39.921Z,94837.38
2023-05-20T05:34:07.936Z,94851.06
2023-05-20T05:36:35.973Z,94843.56
2023-05-20T05:39:04.503Z,94825.81
2023-05-20T05:41:33.906Z,94851.19
2023-05-20T05:44:02.046Z,94843.09
2023-05-20T05:46:30.185Z,94847.38
2023-05-20T05:48:59.042Z,94840.00
2023-05-20T05:51:29.214Z,94849.19
2023-05-20T05:53:57.296Z,94852.38
2023-05-20T05:56:25.549Z,94840.16
2023-05-20T05:58:55.020Z,94845.88
2023-05-20T06:01:45.623Z,94840.41
2023-05-20T06:04:13.730Z,94829.94
2023-05-20T06:06:42.085Z,94817.41
2023-05-20T06:09:10.154Z,94831.63
2023-05-20T06:11:38.259Z,94842.59
2023-05-20T06:14:07.632Z,94842.06
2023-05-20T06:16:35.717Z,94824.19
2023-05-20T06:19:05.533Z,94827.44
2023-05-20T06:21:33.699Z,94825.00
2023-05-20T06:24:01.796Z,94840.78
2023-05-20T06:26:29.846Z,94816.78
2023-05-20T06:28:58.097Z,94842.88
2023-05-20T06:31:27.779Z,94849.38
2023-05-20T06:33:56.015Z,94819.94
2023-05-20T06:36:24.097Z,94820.16
2023-05-20T06:38:52.033Z,94834.09
2023-05-20T06:41:20.297Z,94831.06
2023-05-20T06:43:48.863Z,94830.22
2023-05-20T06:46:18.250Z,94822.53
2023-05-20T06:48:47.686Z,94796.91
2023-05-20T06:51:16.069Z,94803.94
2023-05-20T06:53:44.100Z,94817.03
2023-05-20T06:56:12.313Z,94831.56
2023-05-20T06:58:40.554Z,94823.66
2023-05-20T07:01:08.743Z,94829.44
2023-05-20T07:03:36.851Z,94815.72
2023-05-20T07:06:07.262Z,94822.13
2023-05-20T07:08:37.017Z,94799.56
2023-05-20T07:11:05.055Z,94814.19
2023-05-20T07:13:33.083Z,94826.50
2023-05-20T07:16:01.200Z,94806.66
2023-05-20T07:18:29.606Z,94822.31
2023-05-20T07:20:58.089Z,94818.06
2023-05-20T07:23:27.551Z,94824.84
2023-05-20T07:25:55.622Z,94798.78
2023-05-20T07:28:23.793Z,94792.88
2023-05-20T07:30:55.389Z,94815.44
2023-05-20T07:33:24.315Z,94815.91
2023-05-20T07:35:54.632Z,94815.66
2023-05-20T07:38:22.680Z,94813.97
2023-05-20T07:40:51.992Z,94813.53
2023-05-20T07:43:19.983Z,94823.34
2023-05-20T07:45:47.973Z,94814.06
2023-05-20T07:48:16.076Z,94817.13
2023-05-20T07:50:44.154Z,94814.00
2023-05-20T07:53:12.155Z,94810.09
2023-05-20T07:55:40.236Z,94814.19
2023-05-20T07:58:10.060Z,94819.31
2023-05-20T08:00:37.957Z,94820.41
2023-05-20T08:03:07.925Z,94825.66
2023-05-20T08:05:38.084Z,94814.91
2023-05-20T08:08:06.770Z,94812.88
2023-05-20T08:10:34.744Z,94806.34
2023-05-20T08:13:02.712Z,94814.91
2023-05-20T08:15:32.096Z,94814.63
2023-05-20T08:18:00.325Z,94810.16
2023-05-20T08:20:28.788Z,94808.75
2023-05-20T08:22:56.715Z,94802.31
2023-05-20T08:25:24.811Z,94804.88
2023-05-20T08:27:52.974Z,94793.66
2023-05-20T08:30:21.295Z,94801.00
2023-05-20T08:32:50.760Z,94796.22
2023-05-20T08:35:18.899Z,94801.75
2023-05-20T08:37:47.061Z,94795.47
2023-05-20T08:40:15.797Z,94792.44
2023-05-20T08:42:44.531Z,94794.28
2023-05-20T08:45:13.698Z,94789.31
2023-05-20T08:47:44.761Z,94793.25
2023-05-20T08:50:15.670Z,94805.66
2023-05-20T08:52:45.648Z,94800.84
2023-05-20T08:55:16.816Z,94791.06
2023-05-20T08:57:47.325Z,94806.00
2023-05-20T09:00:17.218Z,94793.66
2023-05-20T09:02:48.112Z,94798.94
2023-05-20T09:05:18.283Z,94793.19
2023-05-20T09:07:46.744Z,94783.66
2023-05-20T09:10:14.981Z,94780.34
2023-05-20T09:12:42.944Z,94779.53
2023-05-20T09:15:11.153Z,94773.69
2023-05-20T09:17:39.869Z,94771.16
2023-05-20T09:20:09.927Z,94771.25
2023-05-20T09:22:40.761Z,94771.25
2023-05-20T09:25:11.507Z,94767.97
2023-05-20T09:27:39.435Z,94759.84
2023-05-20T09:30:08.750Z,94773.56
2023-05-20T09:32:36.745Z,94763.50
2023-05-20T09:35:06.297Z,94764.47
2023-05-20T09:37:36.045Z,94762.19
2023-05-20T09:40:09.307Z,94758.44
2023-05-20T09:42:43.505Z,94758.81
2023-05-20T09:45:11.889Z,94750.06
2023-05-20T09:47:41.291Z,94751.88
2023-05-20T09:50:10.671Z,94753.47
2023-05-20T09:52:40.104Z,94740.91
2023-05-20T09:55:11.477Z,94746.38
2023-05-20T09:57:39.554Z,94727.69
2023-05-20T10:00:09.121Z,94737.31
2023-05-20T10:02:37.787Z,94740.38
2023-05-20T10:05:10.952Z,94732.97
2023-05-20T10:08:32.898Z,94738.00
2023-05-20T10:11:12.871Z,94724.66
2023-05-20T10:13:54.349Z,94719.34
2023-05-20T10:16:30.797Z,94713.97
2023-05-20T10:19:07.275Z,94706.56
2023-05-20T10:21:35.391Z,94709.72
2023-05-20T10:24:09.695Z,94698.41
2023-05-20T10:26:40.045Z,94689.91
2023-05-20T10:29:17.897Z,94703.41
2023-05-20T10:31:46.757Z,94698.19
2023-05-20T10:34:17.450Z,94701.78
2023-05-20T10:36:49.318Z,94695.69
2023-05-20T10:39:18.103Z,94695.13
2023-05-20T10:41:47.359Z,94689.81
2023-05-20T10:44:15.308Z,94679.91
2023-05-20T10:49:22.454Z,94670.28
2023-05-20T10:51:52.579Z,94669.75
2023-05-20T10:54:21.168Z,94672.09
2023-05-20T10:56:55.054Z,94658.81
2023-05-20T10:59:23.046Z,94653.59
2023-05-20T11:01:51.661Z,94660.09
2023-05-20T11:04:20.833Z,94652.91
2023-05-20T11:06:54.216Z,94652.34
2023-05-20T11:09:22.474Z,94655.59
2023-05-20T11:11:51.589Z,94650.75
2023-05-20T11:14:20.913Z,94646.78
2023-05-20T11:16:53.187Z,94665.00
2023-05-20T11:19:21.561Z,94653.09
2023-05-20T11:21:49.859Z,94641.28
2023-05-20T11:24:25.785Z,94633.34
2023-05-20T11:26:53.894Z,94637.91
2023-05-20T11:29:23.296Z,94636.56
2023-05-20T11:31:52.264Z,94634.81
2023-05-20T11:34:24.136Z,94613.66
2023-05-20T11:36:57.934Z,94627.97
2023-05-20T11:39:26.967Z,94617.19
2023-05-20T11:41:55.018Z,94628.03
2023-05-20T11:44:24.382Z,94619.50
2023-05-20T11:46:52.310Z,94611.06
2023-05-20T11:49:20.312Z,94616.66
2023-05-20T11:51:48.246Z,94611.22
2023-05-20T11:54:16.411Z,94607.53
2023-05-20T11:56:45.587Z,94604.16
2023-05-20T11:59:14.812Z,94605.44
2023-05-20T12:01:44.508Z,94581.22
2023-05-20T12:04:13.367Z,94603.63
2023-05-20T12:06:42.975Z,94600.16
2023-05-20T12:09:12.078Z,94594.13
2023-05-20T12:11:42.073Z,94586.81
2023-05-20T12:14:10.651Z,94588.56
2023-05-20T12:16:39.679Z,94585.16
2023-05-20T12:19:09.444Z,94600.97
2023-05-20T12:21:37.505Z,94588.97
2023-05-20T12:24:07.140Z,94598.16
2023-05-20T12:26:36.069Z,94606.19
2023-05-20T12:29:04.020Z,94617.34
2023-05-20T12:31:34.662Z,94633.16
2023-05-20T12:34:03.143Z,94627.50
2023-05-20T12:36:33.868Z,94635.03
2023-05-20T12:39:01.912Z,94636.28
2023-05-20T12:41:29.831Z,94632.38
2023-05-20T12:43:58.154Z,94648.09
2023-05-20T12:46:26.171Z,94648.63
2023-05-20T12:48:54.187Z,94649.56
2023-05-20T12:51:22.096Z,94652.69
2023-05-20T12:53:51.528Z,94643.34
2023-05-20T12:56:20.065Z,94645.03
2023-05-20T12:58:48.183Z,94637.88
2023-05-20T13:01:16.223Z,94635.06
2023-05-20T13:03:44.299Z,94628.47
2023-05-20T13:06:12.262Z,94624.94
2023-05-20T13:08:40.195Z,94616.66
2023-05-20T13:11:09.449Z,94614.63
2023-05-20T13:13:37.494Z,94604.41
2023-05-20T13:16:06.005Z,94594.88
2023-05-20T13:18:33.923Z,94590.78
2023-05-20T13:21:01.860Z,94598.34
2023-05-20T13:23:29.745Z,94598.31
2023-05-20T13:25:57.658Z,94599.78
2023-05-20T13:28:27.469Z,94587.91
2023-05-20T13:30:55.586Z,94590.50
2023-05-20T13:33:24.311Z,94592.38
2023-05-20T13:35:52.290Z,94590.88
2023-05-20T13:38:20.193Z,94590.16
2023-05-20T13:40:49.015Z,94594.00
2023-05-20T13:43:17.071Z,94593.81
2023-05-20T13:45:46.493Z,94591.03
2023-05-20T13:48:14.485Z,94588.84
2023-05-20T13:50:42.447Z,94589.66
2023-05-20T13:53:12.565Z,94585.84
2023-05-20T13:55:40.609Z,94580.50
2023-05-20T13:58:09.156Z,94580.16
2023-05-20T14:00:37.714Z,94571.19
2023-05-20T14:03:09.196Z,94566.88
2023-05-20T14:05:37.517Z,94567.50
2023-05-20T14:08:05.911Z,94553.88
2023-05-20T14:10:33.966Z,94562.88
2023-05-20T14:13:02.372Z,94531.75
2023-05-20T14:15:30.734Z,94544.25
2023-05-20T14:17:59.020Z,94536.91
2023-05-20T14:20:28.348Z,94538.22
2023-05-20T14:22:56.297Z,94542.47
2023-05-20T14:25:24.199Z,94551.47
2023-05-20T14:27:54.968Z,94545.13
2023-05-20T14:30:22.966Z,94550.41
2023-05-20T14:32:51.022Z,94552.34
2023-05-20T14:35:19.343Z,94556.91
2023-05-20T14:37:48.859Z,94535.06
2023-05-20T14:40:16.811Z,94552.25
2023-05-20T14:42:45.070Z,94533.03
2023-05-20T14:45:13.063Z,94534.22
2023-05-20T14:47:41.083Z,94542.91
2023-05-20T14:50:09.730Z,94546.25
2023-05-20T14:52:37.754Z,94538.72
2023-05-20T14:55:08.280Z,94543.44
2023-05-20T14:57:36.214Z,94539.19
2023-05-20T15:00:04.743Z,94525.28
2023-05-20T15:02:33.104Z,94538.50
2023-05-20T15:05:01.241Z,94536.25
2023-05-20T15:07:29.141Z,94539.94
2023-05-20T15:09:57.185Z,94527.63
2023-05-20T15:12:26.545Z,94539.16
2023-05-20T15:14:54.609Z,94532.09
2023-05-20T15:17:22.611Z,94531.28
2023-05-20T15:19:50.621Z,94522.16
2023-05-20T15:22:18.584Z,94524.09
2023-05-20T15:24:46.601Z,94528.75
2023-05-20T15:27:14.597Z,94522.72
2023-05-20T15:29:44.067Z,94530.56
2023-05-20T15:32:12.179Z,94532.72
2023-05-20T15:34:40.472Z,94514.63
2023-05-20T15:37:08.487Z,94525.50
2023-05-20T15:39:38.578Z,94520.44
2023-05-20T15:42:06.792Z,94523.66
2023-05-20T15:44:36.181Z,94511.22
2023-05-20T15:47:06.266Z,94529.81
2023-05-20T15:49:34.321Z,94517.53
2023-05-20T15:52:04.030Z,94526.72
2023-05-20T15:54:32.865Z,94520.72
2023-05-20T15:57:01.200Z,94522.88
2023-05-20T15:59:29.291Z,94522.75
2023-05-20T16:01:57.443Z,94520.53
2023-05-20T16:04:27.414Z,94506.22
2023-05-20T16:06:55.606Z,94520.94
2023-05-20T16:09:23.729Z,94520.47
2023-05-20T16:11:51.862Z,94520.47
2023-05-20T16:14:19.832Z,94523.59
2023-05-20T16:16:47.839Z,94524.81
2023-05-20T16:19:16.624Z,94527.09
2023-05-20T16:21:46.156Z,94525.47
2023-05-20T16:24:14.235Z,94520.91
2023-05-20T16:26:42.240Z,94517.09
2023-05-20T16:29:10.165Z,94518.75
2023-05-20T16:31:38.261Z,94513.28
2023-05-20T16:34:06.663Z,94513.34
2023-05-20T16:36:34.587Z,94515.34
2023-05-20T16:39:03.968Z,94529.91
2023-05-20T16:41:32.016Z,94523.56
2023-05-20T16:44:00.028Z,94525.03
2023-05-20T16:46:27.993Z,94527.84
2023-05-20T16:48:56.224Z,94514.72
2023-05-20T16:51:24.196Z,94525.91
2023-05-20T16:53:52.186Z,94522.81
2023-05-20T16:56:22.223Z,94524.81
2023-05-20T16:58:52.820Z,94523.03
2023-05-20T17:01:21.346Z,94533.00
2023-05-20T17:03:49.824Z,94536.94
2023-05-20T17:06:18.133Z,94539.53
2023-05-20T17:08:46.150Z,94540.53
2023-05-20T17:11:14.262Z,94526.91
2023-05-20T17:13:43.570Z,94539.03
2023-05-20T17:16:12.207Z,94540.63
2023-05-20T17:18:40.326Z,94547.88
2023-05-20T17:21:08.296Z,94541.84
2023-05-20T17:23:36.641Z,94550.88
2023-05-20T17:26:05.006Z,94545.41
2023-05-20T17:28:33.182Z,94531.41
2023-05-20T17:31:02.622Z,94546.63
2023-05-20T17:33:30.678Z,94547.22
2023-05-20T17:35:58.844Z,94542.75
2023-05-20T17:38:27.109Z,94538.94
2023-05-20T17:40:56.134Z,94553.00
2023-05-20T17:43:27.349Z,94546.16
2023-05-20T17:45:55.420Z,94553.94
2023-05-20T17:48:24.833Z,94572.56
2023-05-20T17:50:52.801Z,94574.72
2023-05-20T17:53:21.979Z,94585.25
2023-05-20T17:55:50.588Z,94553.69
2023-05-20T17:58:22.305Z,94579.84
2023-05-20T18:00:50.274Z,94582.22
2023-05-20T18:03:19.210Z,94574.19
2023-05-20T18:05:48.589Z,94572.13
2023-05-20T18:08:19.118Z,94576.59
2023-05-20T18:10:47.093Z,94583.84
2023-05-20T18:13:15.056Z,94591.59
2023-05-20T18:15:47.090Z,94582.63
2023-05-20T18:18:15.057Z,94587.03
2023-05-20T18:20:43.108Z,94579.81
2023-05-20T18:23:12.564Z,94577.75
2023-05-20T18:25:42.410Z,94564.41
2023-05-20T18:28:11.309Z,94582.63
2023-05-20T18:30:39.458Z,94574.13
2023-05-20T18:33:07.465Z,94577.19
2023-05-20T18:35:35.542Z,94571.13
2023-05-20T18:38:03.589Z,94574.66
2023-05-20T18:40:33.679Z,94568.50
2023-05-20T18:43:01.861Z,94575.75
2023-05-20T18:45:29.937Z,94574.94
2023-05-20T18:48:02.860Z,94584.00
2023-05-20T18:50:31.060Z,94591.06
2023-05-20T18:52:59.042Z,94592.41
2023-05-20T18:55:27.540Z,94594.47
2023-05-20T18:57:57.093Z,94599.44
2023-05-20T19:00:25.313Z,94596.81
2023-05-20T19:02:53.967Z,94597.91
2023-05-20T19:05:22.118Z,94584.00
2023-05-20T19:07:50.153Z,94600.31
2023-05-20T19:10:18.575Z,94591.03
2023-05-20T19:12:47.218Z,94605.78
2023-05-20T19:15:19.152Z,94610.66
2023-05-20T19:17:47.606Z,94621.13
2023-05-20T19:20:15.870Z,94622.03
2023-05-20T19:22:43.926Z,94632.88
2023-05-20T19:25:12.741Z,94627.28
2023-05-20T19:27:40.833Z,94617.06
2023-05-20T19:30:11.050Z,94629.00
2023-05-20T19:32:42.749Z,94630.41
2023-05-20T19:35:11.845Z,94632.03
2023-05-20T19:37:39.920Z,94622.16
2023-05-20T19:40:09.518Z,94622.38
2023-05-20T19:42:37.496Z,94613.94
2023-05-20T19:45:06.827Z,94621.63
2023-05-20T19:47:34.783Z,94626.66
2023-05-20T19:50:04.502Z,94627.91
2023-05-20T19:52:35.130Z,94625.91
2023-05-20T19:55:03.328Z,94632.59
2023-05-20T19:57:31.845Z,94612.03
2023-05-20T20:00:00.068Z,94628.19
2023-05-20T20:02:28.532Z,94632.28
2023-05-20T20:04:56.788Z,94627.41
2023-05-20T20:07:26.200Z,94623.13
2023-05-20T20:09:55.501Z,94600.59
2023-05-20T20:12:23.685Z,94621.69
2023-05-20T20:14:52.307Z,94619.19
2023-05-20T20:17:23.160Z,94621.25
2023-05-20T20:19:53.347Z,94601.56
2023-05-20T20:22:21.518Z,94589.91
2023-05-20T20:24:51.568Z,94581.28
2023-05-20T20:27:20.664Z,94579.13
2023-05-20T20:29:48.612Z,94580.31
2023-05-20T20:32:16.857Z,94576.28
2023-05-20T20:34:46.101Z,94573.06
2023-05-20T20:37:15.425Z,94581.34
2023-05-20T20:39:46.851Z,94577.53
2023-05-20T20:42:16.293Z,94562.44
2023-05-20T20:44:48.298Z,94558.75
2023-05-20T20:47:16.284Z,94564.22
2023-05-20T20:49:44.251Z,94567.63
2023-05-20T20:52:12.476Z,94563.19
2023-05-20T20:54:42.913Z,94552.53
2023-05-20T20:57:11.583Z,94550.31
2023-05-20T20:59:48.024Z,94543.22
2023-05-20T21:02:16.294Z,94551.16
2023-05-20T21:04:44.298Z,94536.03
2023-05-20T21:07:12.409Z,94549.53
2023-05-20T21:09:40.410Z,94548.97
2023-05-20T21:12:09.458Z,94553.03
2023-05-20T21:14:37.629Z,94551.25
2023-05-20T21:17:07.195Z,94548.22
2023-05-20T21:19:36.014Z,94542.41
2023-05-20T21:22:04.098Z,94529.91
2023-05-20T21:24:32.086Z,94543.81
2023-05-20T21:27:00.154Z,94532.94
2023-05-20T21:29:28.089Z,94533.72
2023-05-20T21:31:56.158Z,94533.53
2023-05-20T21:34:25.502Z,94528.09
2023-05-20T21:36:53.453Z,94526.88
2023-05-20T21:39:21.518Z,94523.69
2023-05-20T21:41:49.470Z,94527.69
2023-05-20T21:44:17.451Z,94529.50
2023-05-20T21:46:45.451Z,94524.06
2023-05-20T21:49:13.575Z,94520.41
2023-05-20T21:51:42.864Z,94512.94
2023-05-20T21:54:10.885Z,94516.56
2023-05-20T21:56:39.099Z,94515.56
2023-05-20T21:59:07.028Z,94526.03
2023-05-20T22:01:35.062Z,94526.81
2023-05-20T22:04:04.963Z,94518.97
2023-05-20T22:06:35.051Z,94509.31
2023-05-20T22:09:05.379Z,94508.88
2023-05-20T22:11:33.815Z,94512.13
2023-05-20T22:14:01.874Z,94503.06
2023-05-20T22:16:30.178Z,94500.25
2023-05-20T22:18:58.540Z,94505.69
2023-05-20T22:21:26.610Z,94507.47
2023-05-20T22:23:55.432Z,94497.44
2023-05-20T22:26:25.401Z,94488.53
2023-05-20T22:28:53.317Z,94491.34
2023-05-20T22:31:22.070Z,94488.50
2023-05-20T22:33:50.268Z,94490.09
2023-05-20T22:36:18.206Z,94481.88
2023-05-20T22:38:46.473Z,94485.91
2023-05-20T22:41:14.462Z,94474.47
2023-05-20T22:43:43.762Z,94477.28
2023-05-20T22:46:11.897Z,94471.06
2023-05-20T22:48:39.864Z,94482.72
2023-05-20T22:51:08.972Z,94481.31
2023-05-20T22:53:36.999Z,94474.69
2023-05-20T22:56:05.943Z,94473.47
2023-05-20T22:58:39.529Z,94479.69
2023-05-20T23:01:08.957Z,94467.03
2023-05-20T23:03:37.277Z,94472.69
2023-05-20T23:06:05.601Z,94461.22
2023-05-20T23:08:33.520Z,94459.63
2023-05-20T23:11:01.433Z,94455.63
2023-05-20T23:13:29.414Z,94457.63
2023-05-20T23:15:57.951Z,94445.78
2023-05-20T23:18:27.390Z,94451.78
2023-05-20T23:20:55.861Z,94449.97
2023-05-20T23:23:30.306Z,94442.34
2023-05-20T23:26:01.669Z,94443.75
2023-05-20T23:28:29.791Z,94431.88
2023-05-20T23:30:57.746Z,94427.63
2023-05-20T23:33:27.266Z,94426.03
2023-05-20T23:35:55.281Z,94415.34
2023-05-20T23:38:23.497Z,94422.22
2023-05-20T23:40:51.619Z,94417.16
2023-05-20T23:43:19.661Z,94412.75
2023-05-20T23:45:47.916Z,94413.75
2023-05-20T23:48:17.959Z,94398.44
2023-05-20T23:50:48.272Z,94405.72
2023-05-20T23:53:17.118Z,94403.28
2023-05-20T23:55:45.451Z,94400.88
2023-05-20T23:58:13.441Z,94397.03
